Time,TemperatureF,DewpointF,PressureIn,WindDirection,WindDirectionDegrees,WindSpeedMPH,WindSpeedGustMPH,Humidity,HourlyPrecipIn,Conditions,Clouds,dailyrainin,SoftwareType,DateUTC
2013-07-28 00:02:00,69.0,65.0,29.75,SSE,157,6.0,13.0,88,0.00,,,0.20,,2013-07-28 04:02:00,
2013-07-28 00:12:00,69.0,65.0,29.75,SSW,207,5.0,11.0,88,0.00,,,0.20,,2013-07-28 04:12:00,
2013-07-28 00:22:00,68.0,65.0,29.75,South,184,5.0,9.0,89,0.00,,,0.20,,2013-07-28 04:22:00,
2013-07-28 00:32:00,68.0,65.0,29.74,SSW,194,4.0,10.0,90,0.00,,,0.20,,2013-07-28 04:32:00,
2013-07-28 00:43:00,68.0,65.0,29.74,South,181,5.0,11.0,91,0.00,,,0.20,,2013-07-28 04:43:00,
2013-07-28 00:53:00,68.0,66.0,29.75,SW,220,5.0,11.0,92,0.00,,,0.20,,2013-07-28 04:53:00,
2013-07-28 01:02:00,68.0,66.0,29.75,SSW,210,3.0,5.0,92,0.00,,,0.20,,2013-07-28 05:02:00,
2013-07-28 01:12:00,68.0,66.0,29.75,SSW,211,4.0,7.0,93,0.00,,,0.20,,2013-07-28 05:12:00,
2013-07-28 01:22:00,68.0,66.0,29.75,SW,215,4.0,7.0,92,0.00,,,0.20,,2013-07-28 05:22:00,
2013-07-28 01:32:00,68.0,66.0,29.75,SSW,213,3.0,7.0,92,0.00,,,0.20,,2013-07-28 05:32:00,
2013-07-28 01:43:00,69.0,67.0,29.75,SSW,209,4.0,6.0,92,0.00,,,0.20,,2013-07-28 05:43:00,
2013-07-28 01:53:00,69.0,66.0,29.75,SSW,205,5.0,8.0,91,0.00,,,0.20,,2013-07-28 05:53:00,
2013-07-28 02:02:00,69.0,66.0,29.75,SSW,202,4.0,8.0,90,0.00,,,0.20,,2013-07-28 06:02:00,
2013-07-28 02:12:00,69.0,66.0,29.75,SSW,198,4.0,6.0,90,0.00,,,0.20,,2013-07-28 06:12:00,
2013-07-28 02:22:00,69.0,66.0,29.75,SW,216,4.0,6.0,89,0.00,,,0.20,,2013-07-28 06:22:00,
2013-07-28 02:32:00,69.0,66.0,29.74,SW,215,4.0,9.0,89,0.00,,,0.20,,2013-07-28 06:32:00,
2013-07-28 02:43:00,70.0,66.0,29.74,SW,223,5.0,9.0,88,0.00,,,0.20,,2013-07-28 06:43:00,
2013-07-28 02:52:00,70.0,66.0,29.74,SSW,213,5.0,8.0,88,0.00,,,0.20,,2013-07-28 06:52:00,
2013-07-28 03:02:00,69.0,65.0,29.74,SW,218,4.0,7.0,88,0.00,,,0.20,,2013-07-28 07:02:00,
2013-07-28 03:12:00,70.0,66.0,29.74,SSW,205,5.0,8.0,88,0.00,,,0.20,,2013-07-28 07:12:00,
2013-07-28 03:23:00,70.0,66.0,29.74,SW,221,5.0,9.0,88,0.00,,,0.20,,2013-07-28 07:23:00,
2013-07-28 03:32:00,70.0,66.0,29.74,SSW,208,4.0,7.0,87,0.00,,,0.20,,2013-07-28 07:32:00,
2013-07-28 03:43:00,69.0,64.0,29.75,South,171,4.0,8.0,85,0.00,,,0.20,,2013-07-28 07:43:00,
2013-07-28 03:53:00,69.0,63.0,29.75,SW,221,5.0,10.0,81,0.00,,,0.20,,2013-07-28 07:53:00,
2013-07-28 04:02:00,68.0,62.0,29.76,SW,216,3.0,8.0,80,0.00,,,0.20,,2013-07-28 08:02:00,
2013-07-28 04:12:00,68.0,62.0,29.76,SSW,209,3.0,9.0,82,0.00,,,0.20,,2013-07-28 08:12:00,
2013-07-28 04:22:00,67.0,62.0,29.76,SSW,210,2.0,5.0,83,0.00,,,0.20,,2013-07-28 08:22:00,
2013-07-28 04:33:00,67.0,63.0,29.78,SSW,205,1.0,5.0,86,0.00,,,0.20,,2013-07-28 08:33:00,
2013-07-28 04:43:00,66.0,62.0,29.78,SW,224,3.0,8.0,86,0.00,,,0.20,,2013-07-28 08:43:00,
2013-07-28 04:53:00,66.0,62.0,29.78,SSW,202,2.0,6.0,87,0.00,,,0.20,,2013-07-28 08:53:00,
2013-07-28 05:02:00,65.0,61.0,29.79,SW,227,1.0,6.0,88,0.00,,,0.20,,2013-07-28 09:02:00,
2013-07-28 05:12:00,64.0,61.0,29.80,SSW,210,2.0,6.0,89,0.00,,,0.20,,2013-07-28 09:12:00,
2013-07-28 05:22:00,64.0,61.0,29.80,SSW,206,2.0,4.0,90,0.00,,,0.20,,2013-07-28 09:22:00,
2013-07-28 05:32:00,63.0,60.0,29.80,SSW,205,2.0,4.0,90,0.00,,,0.20,,2013-07-28 09:32:00,
2013-07-28 05:43:00,63.0,60.0,29.81,SSW,205,1.0,3.0,91,0.00,,,0.20,,2013-07-28 09:43:00,
2013-07-28 05:53:00,63.0,60.0,29.80,SSW,205,0.0,4.0,91,0.00,,,0.20,,2013-07-28 09:53:00,
2013-07-28 06:02:00,63.0,61.0,29.80,SSW,195,3.0,5.0,92,0.00,,,0.20,,2013-07-28 10:02:00,
2013-07-28 06:12:00,63.0,61.0,29.81,SSW,212,1.0,3.0,92,0.00,,,0.20,,2013-07-28 10:12:00,
2013-07-28 06:22:00,63.0,61.0,29.81,SSW,212,0.0,2.0,92,0.00,,,0.20,,2013-07-28 10:22:00,
2013-07-28 06:33:00,63.0,61.0,29.81,SSW,212,0.0,1.0,92,0.00,,,0.20,,2013-07-28 10:33:00,
2013-07-28 06:42:00,62.0,60.0,29.81,SW,219,2.0,4.0,92,0.00,,,0.20,,2013-07-28 10:42:00,
2013-07-28 06:52:00,62.0,60.0,29.82,SW,216,1.0,4.0,92,0.00,,,0.20,,2013-07-28 10:52:00,
2013-07-28 07:12:00,62.0,60.0,29.83,SSW,201,3.0,6.0,93,0.00,,,0.20,,2013-07-28 11:12:00,
2013-07-28 07:22:00,62.0,60.0,29.83,SSW,203,2.0,6.0,92,0.00,,,0.20,,2013-07-28 11:22:00,
2013-07-28 07:33:00,62.0,60.0,29.84,SSW,209,3.0,8.0,92,0.00,,,0.20,,2013-07-28 11:33:00,
2013-07-28 07:43:00,62.0,60.0,29.83,SW,232,2.0,6.0,92,0.00,,,0.20,,2013-07-28 11:43:00,
2013-07-28 07:54:00,62.0,60.0,29.84,SSW,207,2.0,5.0,92,0.00,,,0.20,,2013-07-28 11:54:00,
2013-07-28 08:02:00,62.0,60.0,29.84,SSW,209,2.0,4.0,92,0.00,,,0.20,,2013-07-28 12:02:00,
2013-07-28 08:12:00,62.0,60.0,29.84,SSW,197,3.0,7.0,93,0.00,,,0.20,,2013-07-28 12:12:00,
2013-07-28 08:22:00,62.0,59.0,29.85,SW,223,3.0,5.0,89,0.00,,,0.20,,2013-07-28 12:22:00,
2013-07-28 08:33:00,63.0,59.0,29.85,SW,231,2.0,8.0,86,0.00,,,0.20,,2013-07-28 12:33:00,
2013-07-28 08:43:00,63.0,58.0,29.85,SW,223,3.0,6.0,84,0.00,,,0.20,,2013-07-28 12:43:00,
2013-07-28 08:53:00,64.0,57.0,29.85,SW,227,3.0,6.0,79,0.00,,,0.20,,2013-07-28 12:53:00,
2013-07-28 09:12:00,66.0,57.0,29.85,SSW,210,2.0,8.0,72,0.00,,,0.20,,2013-07-28 13:12:00,
2013-07-28 09:22:00,67.0,55.0,29.85,SSW,192,5.0,8.0,66,0.00,,,0.20,,2013-07-28 13:22:00,
2013-07-28 09:32:00,67.0,54.0,29.85,SSW,206,3.0,9.0,64,0.00,,,0.20,,2013-07-28 13:32:00,
2013-07-28 09:43:00,68.0,55.0,29.85,SW,231,4.0,11.0,64,0.00,,,0.20,,2013-07-28 13:43:00,
2013-07-28 09:53:00,68.0,56.0,29.86,SW,225,3.0,9.0,65,0.00,,,0.20,,2013-07-28 13:53:00,
2013-07-28 10:02:00,68.0,55.0,29.86,SW,219,4.0,7.0,63,0.00,,,0.20,,2013-07-28 14:02:00,
2013-07-28 10:43:00,68.0,54.0,29.87,SW,227,4.0,8.0,60,0.00,,,0.20,,2013-07-28 14:43:00,
2013-07-28 10:53:00,68.0,54.0,29.87,SW,225,4.0,9.0,61,0.00,,,0.20,,2013-07-28 14:53:00,
2013-07-28 11:03:00,69.0,53.0,29.87,SW,218,3.0,10.0,57,0.00,,,0.20,,2013-07-28 15:03:00,
2013-07-28 11:13:00,68.0,53.0,29.88,SW,231,2.0,7.0,59,0.00,,,0.20,,2013-07-28 15:13:00,
2013-07-28 11:22:00,68.0,55.0,29.88,SW,220,1.0,4.0,63,0.00,,,0.20,,2013-07-28 15:22:00,
2013-07-28 11:32:00,69.0,55.0,29.88,WNW,294,1.0,4.0,60,0.00,,,0.20,,2013-07-28 15:32:00,
2013-07-28 11:43:00,70.0,56.0,29.88,SSW,213,1.0,3.0,62,0.00,,,0.20,,2013-07-28 15:43:00,
2013-07-28 11:53:00,70.0,55.0,29.88,SSW,202,2.0,5.0,59,0.00,,,0.20,,2013-07-28 15:53:00,
2013-07-28 12:03:00,69.0,54.0,29.88,SSW,198,1.0,6.0,58,0.00,,,0.20,,2013-07-28 16:03:00,
2013-07-28 12:12:00,70.0,55.0,29.88,West,269,0.0,7.0,59,0.00,,,0.20,,2013-07-28 16:12:00,
2013-07-28 12:22:00,70.0,58.0,29.88,SW,216,2.0,7.0,66,0.00,,,0.20,,2013-07-28 16:22:00,
2013-07-28 12:33:00,71.0,57.0,29.88,SSW,208,2.0,8.0,62,0.00,,,0.20,,2013-07-28 16:33:00,
2013-07-28 12:43:00,71.0,56.0,29.88,SW,227,3.0,5.0,59,0.00,,,0.20,,2013-07-28 16:43:00,
2013-07-28 12:52:00,72.0,56.0,29.88,WNW,291,2.0,4.0,57,0.00,,,0.20,,2013-07-28 16:52:00,
2013-07-28 13:02:00,72.0,56.0,29.88,North,360,2.0,6.0,58,0.00,,,0.20,,2013-07-28 17:02:00,
2013-07-28 13:13:00,71.0,57.0,29.88,East,84,2.0,7.0,61,0.00,,,0.20,,2013-07-28 17:13:00,
2013-07-28 13:23:00,71.0,55.0,29.87,ESE,122,1.0,5.0,58,0.00,,,0.20,,2013-07-28 17:23:00,
2013-07-28 13:33:00,71.0,56.0,29.87,NNW,342,3.0,7.0,60,0.00,,,0.20,,2013-07-28 17:33:00,
2013-07-28 13:53:00,72.0,55.0,29.87,East,90,1.0,6.0,55,0.00,,,0.20,,2013-07-28 17:53:00,
2013-07-28 14:03:00,72.0,55.0,29.87,West,279,3.0,6.0,56,0.00,,,0.20,,2013-07-28 18:03:00,
2013-07-28 14:13:00,71.0,56.0,29.87,NE,48,0.0,4.0,59,0.00,,,0.20,,2013-07-28 18:13:00,
2013-07-28 14:22:00,72.0,56.0,29.87,NNE,19,2.0,5.0,57,0.00,,,0.20,,2013-07-28 18:22:00,
2013-07-28 14:33:00,72.0,57.0,29.87,ENE,59,2.0,6.0,59,0.00,,,0.20,,2013-07-28 18:33:00,
2013-07-28 14:43:00,73.0,55.0,29.87,NNW,336,1.0,3.0,53,0.00,,,0.20,,2013-07-28 18:43:00,
2013-07-28 14:52:00,73.0,57.0,29.88,NE,51,1.0,6.0,57,0.00,,,0.20,,2013-07-28 18:52:00,
2013-07-28 15:03:00,73.0,55.0,29.87,SW,219,3.0,12.0,54,0.00,,,0.20,,2013-07-28 19:03:00,
2013-07-28 15:12:00,74.0,53.0,29.88,WSW,237,9.0,17.0,48,0.00,,,0.20,,2013-07-28 19:12:00,
2013-07-28 15:23:00,75.0,55.0,29.88,SSW,207,4.0,12.0,50,0.00,,,0.12,,2013-07-28 19:23:00,
2013-07-28 15:33:00,75.0,54.0,29.88,SSW,205,6.0,11.0,48,0.00,,,0.12,,2013-07-28 19:33:00,
2013-07-28 15:52:00,75.0,54.0,29.88,SW,227,6.0,13.0,48,0.00,,,0.12,,2013-07-28 19:52:00,
2013-07-28 16:03:00,74.0,53.0,29.88,SW,223,8.0,15.0,48,0.00,,,0.12,,2013-07-28 20:03:00,
2013-07-28 16:13:00,75.0,54.0,29.88,SW,223,6.0,17.0,48,0.00,,,0.12,,2013-07-28 20:13:00,
2013-07-28 16:23:00,75.0,52.0,29.88,SSW,212,5.0,14.0,45,0.00,,,0.04,,2013-07-28 20:23:00,
2013-07-28 16:33:00,75.0,53.0,29.88,WSW,242,9.0,16.0,47,0.00,,,0.04,,2013-07-28 20:33:00,
2013-07-28 16:43:00,74.0,52.0,29.88,WSW,242,6.0,10.0,47,0.00,,,0.04,,2013-07-28 20:43:00,
2013-07-28 16:52:00,74.0,51.0,29.88,SW,233,6.0,9.0,45,0.00,,,0.04,,2013-07-28 20:52:00,
2013-07-28 17:03:00,73.0,51.0,29.88,WSW,253,8.0,14.0,46,0.00,,,0.04,,2013-07-28 21:03:00,
2013-07-28 17:13:00,74.0,54.0,29.88,SW,223,9.0,17.0,50,0.00,,,0.04,,2013-07-28 21:13:00,
2013-07-28 17:23:00,73.0,52.0,29.88,WSW,238,6.0,17.0,48,0.00,,,0.04,,2013-07-28 21:23:00,
2013-07-28 17:33:00,72.0,53.0,29.88,SSW,213,7.0,14.0,51,0.00,,,0.04,,2013-07-28 21:33:00,
2013-07-28 17:44:00,73.0,54.0,29.88,SW,223,6.0,17.0,52,0.00,,,0.04,,2013-07-28 21:44:00,
2013-07-28 17:52:00,73.0,54.0,29.88,SSW,210,7.0,13.0,52,0.00,,,0.04,,2013-07-28 21:52:00,
2013-07-28 18:02:00,72.0,53.0,29.88,SW,219,6.0,10.0,51,0.00,,,0.04,,2013-07-28 22:02:00,
2013-07-28 18:12:00,71.0,54.0,29.88,SW,217,6.0,11.0,54,0.00,,,0.04,,2013-07-28 22:12:00,
2013-07-28 18:22:00,73.0,53.0,29.88,SW,218,7.0,9.0,50,0.00,,,0.00,,2013-07-28 22:22:00,
2013-07-28 18:32:00,72.0,53.0,29.88,SW,232,5.0,13.0,51,0.00,,,0.00,,2013-07-28 22:32:00,
2013-07-28 18:43:00,71.0,50.0,29.88,SW,225,6.0,11.0,48,0.00,,,0.00,,2013-07-28 22:43:00,
2013-07-28 18:52:00,70.0,51.0,29.88,SSW,212,5.0,10.0,51,0.00,,,0.00,,2013-07-28 22:52:00,
2013-07-28 19:03:00,70.0,52.0,29.89,South,183,6.0,15.0,52,0.00,,,0.00,,2013-07-28 23:03:00,
2013-07-28 19:12:00,69.0,52.0,29.89,WSW,240,6.0,14.0,54,0.00,,,0.00,,2013-07-28 23:12:00,
2013-07-28 19:22:00,69.0,52.0,29.89,SW,223,6.0,11.0,54,0.00,,,0.00,,2013-07-28 23:22:00,
2013-07-28 19:32:00,68.0,52.0,29.90,SW,219,5.0,11.0,56,0.00,,,0.00,,2013-07-28 23:32:00,
2013-07-28 19:43:00,68.0,54.0,29.90,SSW,208,3.0,7.0,60,0.00,,,0.00,,2013-07-28 23:43:00,
2013-07-28 19:53:00,68.0,54.0,29.90,SSW,213,3.0,7.0,61,0.00,,,0.00,,2013-07-28 23:53:00,
2013-07-28 20:03:00,68.0,54.0,29.90,SSW,202,2.0,7.0,62,0.00,,,0.00,,2013-07-29 00:03:00,
2013-07-28 20:22:00,67.0,54.0,29.90,SW,225,4.0,8.0,63,0.00,,,0.00,,2013-07-29 00:22:00,
2013-07-28 20:32:00,67.0,54.0,29.90,SW,219,4.0,7.0,64,0.00,,,0.00,,2013-07-29 00:32:00,
2013-07-28 20:52:00,66.0,55.0,29.91,SSW,206,2.0,4.0,67,0.00,,,0.00,,2013-07-29 00:52:00,
2013-07-28 21:02:00,65.0,54.0,29.91,SW,214,2.0,7.0,67,0.00,,,0.00,,2013-07-29 01:02:00,
2013-07-28 21:14:00,65.0,54.0,29.92,SW,222,4.0,8.0,68,0.00,,,0.00,,2013-07-29 01:14:00,
2013-07-28 21:29:00,65.0,54.0,29.92,SW,225,3.0,7.0,68,0.00,,,0.00,,2013-07-29 01:29:00,
2013-07-28 21:37:00,64.0,53.0,29.92,SSW,205,3.0,7.0,68,0.00,,,0.00,,2013-07-29 01:37:00,
2013-07-28 21:58:00,63.0,53.0,29.93,SW,232,4.0,9.0,70,0.00,,,0.00,,2013-07-29 01:58:00,
2013-07-28 22:06:00,63.0,54.0,29.93,SW,217,3.0,8.0,73,0.00,,,0.00,,2013-07-29 02:06:00,
2013-07-28 22:14:00,62.0,54.0,29.94,SSW,212,4.0,9.0,74,0.00,,,0.00,,2013-07-29 02:14:00,
2013-07-28 22:27:00,62.0,54.0,29.94,SW,215,3.0,7.0,74,0.00,,,0.00,,2013-07-29 02:27:00,
2013-07-28 22:37:00,62.0,54.0,29.94,SW,220,4.0,7.0,74,0.00,,,0.00,,2013-07-29 02:37:00,
2013-07-28 22:57:00,61.0,53.0,29.94,SW,217,4.0,9.0,76,0.00,,,0.00,,2013-07-29 02:57:00,
2013-07-28 23:05:00,61.0,53.0,29.94,SW,223,5.0,9.0,76,0.00,,,0.00,,2013-07-29 03:05:00,
2013-07-28 23:17:00,61.0,54.0,29.94,SW,221,4.0,9.0,77,0.00,,,0.00,,2013-07-29 03:17:00,
2013-07-28 23:25:00,62.0,54.0,29.94,SW,219,4.0,8.0,76,0.00,,,0.00,,2013-07-29 03:25:00,
2013-07-28 23:48:00,62.0,55.0,29.94,SW,225,5.0,9.0,77,0.00,,,0.00,,2013-07-29 03:48:00,
2013-07-28 23:57:00,62.0,55.0,29.94,SSW,205,5.0,8.0,77,0.00,,,0.00,,2013-07-29 03:57:00,